Time;durP1;ratioP1;P1;durP2;ratioP2;P2;SDS_P1;SDS_P2;PMS_P1;PMS_P2;Temp;Humidity;BMP_temperature;BMP_pressure;BME280_temperature;BME280_humidity;BME280_pressure;Samples;Min_cycle;Max_cycle;Signal;HPM_P1;HPM_P2
2021/08/06 00:00:41;;;;;;;12.48;10.75;;;15.80;99.90;;;;;;5008923;28;20178;-96
2021/08/06 00:03:14;;;;;;;10.55;9.45;;;15.80;99.90;;;;;;5010261;28;20171;-96
2021/08/06 00:05:48;;;;;;;10.63;9.63;;;15.70;99.90;;;;;;5010156;28;20195;-95
2021/08/06 00:08:14;;;;;;;10.13;9.10;;;15.70;99.90;;;;;;5009975;28;20548;-96
2021/08/06 00:10:40;;;;;;;11.32;10.05;;;15.70;99.90;;;;;;5009983;28;20167;-95
2021/08/06 00:13:07;;;;;;;11.43;10.02;;;15.70;99.90;;;;;;5008666;28;20163;-96
2021/08/06 00:15:35;;;;;;;10.57;9.27;;;15.70;99.90;;;;;;5007483;28;20191;-96
2021/08/06 00:18:01;;;;;;;11.75;9.00;;;15.70;99.90;;;;;;5007211;28;20269;-95
2021/08/06 00:20:31;;;;;;;10.95;9.85;;;15.70;99.90;;;;;;5008601;28;20182;-96
2021/08/06 00:22:58;;;;;;;10.95;9.82;;;15.70;99.90;;;;;;5007407;28;20202;-95
2021/08/06 00:27:53;;;;;;;11.57;9.45;;;15.60;99.90;;;;;;4990053;28;20251;-96
2021/08/06 00:30:19;;;;;;;10.27;9.27;;;15.50;99.90;;;;;;4980253;28;20719;-96
2021/08/06 00:32:45;;;;;;;11.18;9.10;;;15.60;99.90;;;;;;4979725;28;20594;-96
2021/08/06 00:35:14;;;;;;;9.48;8.63;;;15.50;99.90;;;;;;4978924;28;20274;-96
2021/08/06 00:37:49;;;;;;;10.65;9.63;;;15.50;99.90;;;;;;4968071;28;20208;-96
2021/08/06 00:40:19;;;;;;;11.10;8.95;;;15.50;99.90;;;;;;4982306;28;20191;-96
2021/08/06 00:42:46;;;;;;;9.88;8.98;;;15.50;99.90;;;;;;4971165;28;20335;-96
2021/08/06 00:45:13;;;;;;;9.32;8.48;;;15.50;99.90;;;;;;4980607;28;20195;-96
2021/08/06 00:47:42;;;;;;;9.43;8.52;;;15.40;99.90;;;;;;4980470;28;20175;-96
2021/08/06 00:50:09;;;;;;;9.98;9.00;;;15.40;99.90;;;;;;4979805;28;20226;-96
2021/08/06 00:52:35;;;;;;;10.18;9.02;;;15.50;99.90;;;;;;4982424;28;20187;-96
2021/08/06 00:55:08;;;;;;;9.40;8.52;;;15.40;99.90;;;;;;4984056;28;20176;-96
2021/08/06 00:57:41;;;;;;;11.00;8.20;;;15.40;99.90;;;;;;4974136;28;20768;-96
2021/08/06 01:00:08;;;;;;;10.10;8.60;;;15.40;99.90;;;;;;4964631;28;20175;-96
2021/08/06 01:02:47;;;;;;;8.95;8.05;;;15.40;99.90;;;;;;4984056;28;20185;-96
2021/08/06 01:05:17;;;;;;;9.18;8.18;;;15.40;99.90;;;;;;4965021;28;20172;-96
2021/08/06 01:08:19;;;;;;;8.63;7.72;;;15.40;99.90;;;;;;4964372;28;20186;-96
2021/08/06 01:11:08;;;;;;;9.20;8.30;;;15.40;99.90;;;;;;4982011;28;20172;-96
2021/08/06 01:13:47;;;;;;;10.43;8.10;;;15.40;99.90;;;;;;4985607;28;20521;-96
2021/08/06 01:16:17;;;;;;;9.88;8.88;;;15.40;99.90;;;;;;4987294;28;20223;-96
2021/08/06 01:19:35;;;;;;;9.52;8.48;;;15.40;99.90;;;;;;4987162;28;20204;-96
2021/08/06 01:22:27;;;;;;;10.23;8.73;;;15.30;99.90;;;;;;4985771;28;20179;-96
2021/08/06 01:25:23;;;;;;;10.20;9.20;;;15.20;99.90;;;;;;4985664;28;20164;-96
2021/08/06 01:28:01;;;;;;;12.27;9.23;;;15.20;99.90;;;;;;4989030;28;20251;-96
2021/08/06 01:32:58;;;;;;;9.32;8.38;;;15.00;99.90;;;;;;5022750;28;20723;-93
2021/08/06 01:35:25;;;;;;;9.75;8.73;;;15.00;99.90;;;;;;5010619;28;20279;-96
2021/08/06 01:37:51;;;;;;;10.40;9.38;;;15.00;99.90;;;;;;5010795;28;20199;-94
2021/08/06 01:40:18;;;;;;;10.13;9.02;;;15.00;99.90;;;;;;5010526;28;20172;-96
2021/08/06 01:43:05;;;;;;;9.48;8.57;;;15.00;99.90;;;;;;5010410;28;20262;-93
2021/08/06 01:45:39;;;;;;;10.18;9.20;;;15.00;99.90;;;;;;5011265;28;20198;-95
2021/08/06 01:48:10;;;;;;;10.70;9.23;;;14.90;99.90;;;;;;5009939;28;20176;-94
2021/08/06 01:50:40;;;;;;;10.15;9.05;;;15.00;99.90;;;;;;5009878;28;20172;-94
2021/08/06 01:53:17;;;;;;;10.00;9.00;;;15.00;99.90;;;;;;5009970;28;20174;-96
2021/08/06 01:55:57;;;;;;;11.13;9.45;;;15.00;99.90;;;;;;5010203;28;20213;-95
2021/08/06 01:58:24;;;;;;;10.45;9.38;;;14.90;99.90;;;;;;5009230;28;20179;-94
2021/08/06 02:00:55;;;;;;;10.93;9.82;;;14.90;99.90;;;;;;5010095;28;20168;-96
2021/08/06 02:03:28;;;;;;;11.38;10.10;;;14.90;99.90;;;;;;5009268;28;20235;-95
2021/08/06 02:06:00;;;;;;;10.63;9.52;;;14.80;99.90;;;;;;5009527;28;20171;-94
2021/08/06 02:08:27;;;;;;;12.18;10.25;;;14.70;99.90;;;;;;5010383;28;20167;-95
2021/08/06 02:10:54;;;;;;;11.70;10.13;;;14.60;99.90;;;;;;5009790;28;20183;-95
2021/08/06 02:13:22;;;;;;;10.63;9.25;;;14.60;99.90;;;;;;5009980;28;20171;-96
2021/08/06 02:15:49;;;;;;;10.27;9.27;;;14.70;99.90;;;;;;5009133;28;20206;-95
2021/08/06 02:18:24;;;;;;;11.70;8.23;;;14.60;99.90;;;;;;5008859;28;20201;-95
2021/08/06 02:20:56;;;;;;;9.85;7.70;;;14.60;99.90;;;;;;5009748;28;20167;-95
2021/08/06 02:23:28;;;;;;;9.35;8.45;;;14.70;99.90;;;;;;5009015;28;20187;-96
2021/08/06 02:25:57;;;;;;;8.90;8.02;;;14.60;99.90;;;;;;5009027;28;20175;-93
2021/08/06 02:28:25;;;;;;;9.88;8.98;;;14.60;99.90;;;;;;5007729;28;20171;-95
2021/08/06 02:30:51;;;;;;;8.73;7.93;;;14.60;99.90;;;;;;5007380;28;20683;-95
2021/08/06 02:33:18;;;;;;;9.82;8.15;;;14.50;99.90;;;;;;5007737;28;20175;-95
2021/08/06 02:35:44;;;;;;;8.68;7.95;;;14.50;99.90;;;;;;5007123;28;20203;-94
2021/08/06 02:38:20;;;;;;;9.30;8.30;;;14.40;99.90;;;;;;5009231;28;20209;-92
2021/08/06 02:40:46;;;;;;;10.98;9.82;;;14.40;99.90;;;;;;5009077;28;20167;-94
2021/08/06 02:43:15;;;;;;;11.52;9.32;;;14.30;99.90;;;;;;5008669;28;20207;-95
2021/08/06 02:45:45;;;;;;;10.65;9.13;;;14.40;99.90;;;;;;5007185;28;20676;-94
2021/08/06 02:48:12;;;;;;;10.50;9.50;;;14.40;99.90;;;;;;5006963;28;20187;-96
2021/08/06 02:50:38;;;;;;;10.40;9.30;;;14.40;99.90;;;;;;5005991;28;20222;-95
2021/08/06 02:53:04;;;;;;;9.82;8.88;;;14.40;99.90;;;;;;5004266;28;20198;-95
2021/08/06 02:55:30;;;;;;;10.38;9.38;;;14.40;99.90;;;;;;5005813;28;20199;-96
2021/08/06 02:57:56;;;;;;;11.27;10.07;;;14.40;99.90;;;;;;5005217;28;20201;-94
2021/08/06 03:00:22;;;;;;;11.05;9.95;;;14.40;99.90;;;;;;5003553;28;20175;-95
2021/08/06 03:02:49;;;;;;;9.77;8.77;;;14.40;99.90;;;;;;5003458;28;20648;-94
2021/08/06 03:05:16;;;;;;;9.73;8.50;;;14.30;99.90;;;;;;5004574;28;20192;-95
2021/08/06 03:07:48;;;;;;;11.63;10.52;;;14.30;99.90;;;;;;5006123;28;20185;-95
2021/08/06 03:10:18;;;;;;;12.57;11.38;;;14.30;99.90;;;;;;5006153;28;20243;-94
2021/08/06 03:12:45;;;;;;;13.55;10.98;;;14.30;99.90;;;;;;5006824;28;20175;-96
2021/08/06 03:15:12;;;;;;;13.48;12.18;;;14.30;99.90;;;;;;5004923;28;20252;-95
2021/08/06 03:17:40;;;;;;;12.57;11.35;;;14.30;99.90;;;;;;5004883;28;20198;-93
2021/08/06 03:20:09;;;;;;;12.07;10.98;;;14.20;99.90;;;;;;5004724;28;20168;-94
2021/08/06 03:22:38;;;;;;;12.20;11.07;;;14.20;99.90;;;;;;5004047;28;20171;-95
2021/08/06 03:25:06;;;;;;;13.52;12.15;;;14.20;99.90;;;;;;5004444;28;20195;-95
2021/08/06 03:27:35;;;;;;;12.07;10.88;;;14.20;99.90;;;;;;5003816;28;20179;-95
2021/08/06 03:30:03;;;;;;;12.35;11.15;;;14.30;99.90;;;;;;5005931;28;20239;-94
2021/08/06 03:32:32;;;;;;;16.80;11.93;;;14.20;99.90;;;;;;4990227;28;20234;-93
2021/08/06 03:34:59;;;;;;;13.60;12.07;;;14.30;99.90;;;;;;4987776;28;20204;-94
2021/08/06 03:37:25;;;;;;;15.25;13.65;;;14.20;99.90;;;;;;4986561;28;20196;-93
2021/08/06 03:39:53;;;;;;;18.20;13.80;;;14.30;99.90;;;;;;4987274;28;20211;-96
2021/08/06 03:42:25;;;;;;;14.07;12.77;;;14.30;99.90;;;;;;4986569;28;20175;-95
2021/08/06 03:44:53;;;;;;;14.15;12.75;;;14.30;99.90;;;;;;4984392;28;20242;-95
2021/08/06 03:47:20;;;;;;;16.02;14.10;;;14.30;99.90;;;;;;4985687;28;20176;-95
2021/08/06 03:49:46;;;;;;;16.52;13.85;;;14.20;99.90;;;;;;4985139;28;20232;-94
2021/08/06 03:52:12;;;;;;;15.60;14.00;;;14.30;99.90;;;;;;4983682;28;20248;-96
2021/08/06 03:54:39;;;;;;;15.07;13.48;;;14.30;99.90;;;;;;4981565;28;20258;-93
2021/08/06 03:57:06;;;;;;;15.45;14.02;;;14.30;99.90;;;;;;4982760;28;20203;-94
2021/08/06 03:59:32;;;;;;;15.82;14.13;;;14.30;99.90;;;;;;4982128;28;20618;-95
2021/08/06 04:01:58;;;;;;;14.98;13.30;;;14.30;99.90;;;;;;4982158;28;20176;-95
2021/08/06 04:04:24;;;;;;;15.82;14.13;;;14.20;99.90;;;;;;4982808;28;20245;-94
2021/08/06 04:06:51;;;;;;;15.43;13.70;;;14.20;99.90;;;;;;4983615;28;20198;-94
2021/08/06 04:09:17;;;;;;;17.83;14.52;;;14.30;99.90;;;;;;4981134;28;20176;-94
2021/08/06 04:11:43;;;;;;;16.17;14.07;;;14.20;99.90;;;;;;4980435;28;20175;-94
2021/08/06 04:14:09;;;;;;;15.55;14.05;;;14.20;99.90;;;;;;4980449;28;20208;-95
2021/08/06 04:16:35;;;;;;;14.70;12.98;;;14.20;99.90;;;;;;4981459;28;20215;-96
2021/08/06 04:19:01;;;;;;;14.77;13.27;;;14.20;99.90;;;;;;4980925;28;20172;-94
2021/08/06 04:21:28;;;;;;;14.90;13.40;;;14.20;99.90;;;;;;4983520;28;20164;-93
2021/08/06 04:23:55;;;;;;;13.75;12.32;;;14.30;99.90;;;;;;4982625;28;20198;-95
2021/08/06 04:26:22;;;;;;;14.35;12.95;;;14.30;99.90;;;;;;4984795;28;20556;-94
2021/08/06 04:28:50;;;;;;;14.20;12.80;;;14.30;99.90;;;;;;4989284;28;20176;-96
2021/08/06 04:31:16;;;;;;;14.30;12.88;;;14.30;99.90;;;;;;4990545;28;20317;-95
2021/08/06 04:33:42;;;;;;;14.98;11.70;;;14.30;99.90;;;;;;4989906;28;20179;-95
2021/08/06 04:36:09;;;;;;;13.25;11.95;;;14.30;99.90;;;;;;4989376;28;20184;-95
2021/08/06 04:38:36;;;;;;;14.00;10.88;;;14.40;99.90;;;;;;4990786;28;20191;-94
2021/08/06 04:41:02;;;;;;;17.75;12.73;;;14.40;99.90;;;;;;4990889;28;20203;-94
2021/08/06 04:43:28;;;;;;;13.00;11.23;;;14.40;99.90;;;;;;4989284;28;20183;-93
2021/08/06 04:45:54;;;;;;;12.95;11.63;;;14.40;99.90;;;;;;4990899;28;20179;-95
2021/08/06 04:48:22;;;;;;;12.23;11.02;;;14.50;99.90;;;;;;4991613;28;20565;-94
2021/08/06 04:50:49;;;;;;;11.82;10.65;;;14.50;99.90;;;;;;4992853;28;20240;-95
2021/08/06 04:53:15;;;;;;;12.27;11.07;;;14.50;99.90;;;;;;4992316;28;20238;-94
2021/08/06 04:55:41;;;;;;;11.35;9.88;;;14.50;99.90;;;;;;4990766;28;20208;-94
2021/08/06 04:58:08;;;;;;;10.82;9.57;;;14.60;99.90;;;;;;4991567;28;20223;-96
2021/08/06 05:00:34;;;;;;;10.80;9.27;;;14.60;99.90;;;;;;4991101;28;20172;-94
2021/08/06 05:03:01;;;;;;;12.23;10.93;;;14.70;99.90;;;;;;4991337;28;20168;-96
2021/08/06 05:05:27;;;;;;;11.40;10.30;;;14.70;99.90;;;;;;4991887;28;20235;-96
2021/08/06 05:07:54;;;;;;;11.95;10.40;;;14.70;99.90;;;;;;4990685;28;20191;-95
2021/08/06 05:10:24;;;;;;;12.98;10.40;;;14.80;99.90;;;;;;4990655;28;20211;-95
2021/08/06 05:12:50;;;;;;;10.70;9.60;;;14.80;99.90;;;;;;4988905;28;20180;-96
2021/08/06 05:15:17;;;;;;;12.18;10.23;;;14.80;99.90;;;;;;4988367;28;20203;-95
2021/08/06 05:17:46;;;;;;;12.77;11.48;;;14.90;99.90;;;;;;4991966;28;20196;-96
2021/08/06 05:20:15;;;;;;;16.58;12.93;;;15.00;99.90;;;;;;4991251;28;20184;-96
2021/08/06 05:22:42;;;;;;;16.13;14.35;;;15.00;99.90;;;;;;4991852;28;20172;-96
2021/08/06 05:25:44;;;;;;;14.27;12.57;;;15.10;99.90;;;;;;4992692;28;20191;-96
2021/08/06 05:28:12;;;;;;;18.00;14.05;;;15.10;99.90;;;;;;4992353;28;20566;-96
2021/08/06 05:30:39;;;;;;;13.70;11.65;;;15.20;99.90;;;;;;4991978;28;20172;-95
2021/08/06 05:33:05;;;;;;;12.20;10.98;;;15.20;99.90;;;;;;5010799;28;20215;-96
2021/08/06 05:35:33;;;;;;;13.57;11.95;;;15.30;99.90;;;;;;5011519;28;20211;-96
2021/08/06 05:38:02;;;;;;;16.17;14.52;;;15.40;99.90;;;;;;5009902;28;20214;-96
2021/08/06 05:40:29;;;;;;;17.15;15.32;;;15.50;99.90;;;;;;5012042;28;20636;-95
2021/08/06 05:42:56;;;;;;;19.02;17.08;;;15.50;99.90;;;;;;5011674;28;20637;-95
2021/08/06 05:45:23;;;;;;;20.08;17.23;;;15.60;99.90;;;;;;5010790;28;20222;-96
2021/08/06 05:47:54;;;;;;;14.73;13.23;;;15.70;99.90;;;;;;5012360;28;20163;-95
2021/08/06 05:50:26;;;;;;;18.15;15.35;;;15.70;99.90;;;;;;5013368;28;20183;-95
2021/08/06 05:52:55;;;;;;;19.00;16.88;;;15.80;99.90;;;;;;5010164;28;20179;-95
2021/08/06 05:55:21;;;;;;;14.00;12.48;;;15.90;99.90;;;;;;5008171;28;20203;-95
2021/08/06 05:57:47;;;;;;;17.52;15.70;;;15.90;99.90;;;;;;5006478;28;20668;-96
2021/08/06 06:00:16;;;;;;;19.17;16.40;;;16.00;99.90;;;;;;5009092;28;20175;-96
2021/08/06 06:02:43;;;;;;;15.57;12.73;;;16.10;99.90;;;;;;5010814;28;20230;-95
2021/08/06 06:05:10;;;;;;;19.05;17.13;;;16.10;99.90;;;;;;5009145;28;20191;-96
2021/08/06 06:10:58;;;;;;;15.05;13.48;;;16.20;99.90;;;;;;5027721;28;20213;-96
2021/08/06 06:13:24;;;;;;;18.02;14.13;;;16.30;99.90;;;;;;5010519;28;20225;-96
2021/08/06 06:15:49;;;;;;;13.48;11.07;;;16.30;99.90;;;;;;5007100;28;20683;-96
2021/08/06 06:18:15;;;;;;;16.05;14.13;;;16.40;99.90;;;;;;5006833;28;20226;-96
2021/08/06 06:20:42;;;;;;;13.10;11.70;;;16.40;99.90;;;;;;5004806;28;20183;-93
2021/08/06 06:23:07;;;;;;;13.35;11.27;;;16.50;99.90;;;;;;5006239;28;20681;-95
2021/08/06 06:25:33;;;;;;;15.40;11.45;;;16.60;99.90;;;;;;5007293;28;20199;-95
2021/08/06 06:28:02;;;;;;;14.55;11.63;;;16.60;99.90;;;;;;5008451;28;20190;-94
2021/08/06 06:30:30;;;;;;;10.38;9.38;;;16.70;99.90;;;;;;5008423;28;20222;-95
2021/08/06 06:33:01;;;;;;;9.77;8.77;;;16.80;99.90;;;;;;5007636;28;20234;-95
2021/08/06 06:35:27;;;;;;;10.95;9.65;;;16.90;99.90;;;;;;5007586;28;20755;-94
2021/08/06 06:37:55;;;;;;;12.77;11.15;;;17.00;99.90;;;;;;5006192;28;20203;-94
2021/08/06 06:40:22;;;;;;;15.40;9.88;;;17.10;99.90;;;;;;5006305;28;20596;-94
2021/08/06 06:42:50;;;;;;;9.77;8.73;;;17.10;99.90;;;;;;5006672;28;20610;-95
2021/08/06 06:45:17;;;;;;;11.55;10.35;;;17.30;99.90;;;;;;5006597;28;20210;-95
2021/08/06 06:47:45;;;;;;;11.80;9.30;;;17.30;99.90;;;;;;5004681;28;20228;-94
2021/08/06 06:50:14;;;;;;;14.32;9.77;;;17.40;99.90;;;;;;5003347;28;20180;-95
2021/08/06 06:52:41;;;;;;;11.68;9.40;;;17.50;99.90;;;;;;5006470;28;20182;-96
2021/08/06 06:55:11;;;;;;;11.55;8.77;;;17.60;99.90;;;;;;5006640;28;20207;-95
2021/08/06 06:57:45;;;;;;;12.40;9.68;;;17.70;99.90;;;;;;5008314;28;20203;-94
2021/08/06 07:00:12;;;;;;;11.77;9.88;;;17.80;99.90;;;;;;5006644;28;20175;-95
2021/08/06 07:02:40;;;;;;;12.65;7.80;;;17.90;99.90;;;;;;5005031;28;20171;-95
2021/08/06 07:05:07;;;;;;;9.48;8.43;;;18.00;99.90;;;;;;5006947;28;20263;-96
2021/08/06 07:07:33;;;;;;;8.82;7.60;;;18.10;99.90;;;;;;5003954;28;20175;-94
2021/08/06 07:09:59;;;;;;;8.95;8.02;;;18.20;99.90;;;;;;5005353;28;20514;-95
2021/08/06 07:12:27;;;;;;;9.02;8.02;;;18.30;99.90;;;;;;5006221;28;20190;-96
2021/08/06 07:14:53;;;;;;;10.68;8.35;;;18.50;99.90;;;;;;5005185;28;20198;-95
2021/08/06 07:17:19;;;;;;;9.25;7.35;;;18.50;99.90;;;;;;5002040;28;20294;-95
2021/08/06 07:19:45;;;;;;;8.55;6.10;;;18.70;99.90;;;;;;5004381;28;20179;-96
2021/08/06 07:22:11;;;;;;;10.40;7.65;;;18.80;99.90;;;;;;5004774;28;20172;-95
2021/08/06 07:24:37;;;;;;;7.30;6.38;;;19.00;99.90;;;;;;5006252;28;20696;-94
2021/08/06 07:27:04;;;;;;;10.27;6.97;;;19.10;99.90;;;;;;5006486;28;20694;-96
2021/08/06 07:29:30;;;;;;;7.55;5.72;;;19.20;99.90;;;;;;5003680;28;20172;-96
2021/08/06 07:31:56;;;;;;;10.57;7.22;;;19.30;99.90;;;;;;5004682;28;20262;-96
2021/08/06 07:34:23;;;;;;;6.28;5.05;;;19.50;99.90;;;;;;5004504;28;20703;-95
2021/08/06 07:36:50;;;;;;;5.93;5.25;;;19.60;99.90;;;;;;5005612;28;20206;-95
2021/08/06 07:39:16;;;;;;;6.90;5.70;;;19.70;99.90;;;;;;5004680;28;20171;-96
2021/08/06 07:41:42;;;;;;;7.60;5.20;;;19.70;99.90;;;;;;5002516;28;20603;-96
2021/08/06 07:44:08;;;;;;;6.28;5.65;;;19.80;99.90;;;;;;5003134;28;20198;-94
2021/08/06 07:46:38;;;;;;;7.18;5.40;;;20.00;99.90;;;;;;5006088;28;20175;-95
2021/08/06 07:49:04;;;;;;;10.18;5.40;;;20.10;99.90;;;;;;5002217;28;20175;-96
2021/08/06 07:51:33;;;;;;;5.35;4.85;;;20.10;99.90;;;;;;5003386;28;20176;-96
2021/08/06 07:54:00;;;;;;;5.70;4.57;;;20.20;99.90;;;;;;5000153;28;20230;-96
2021/08/06 07:56:25;;;;;;;6.38;4.80;;;20.30;99.90;;;;;;5004051;28;20222;-96
2021/08/06 07:58:52;;;;;;;5.60;5.00;;;20.40;99.90;;;;;;5005762;28;20175;-96
2021/08/06 08:01:19;;;;;;;6.25;5.03;;;20.50;99.90;;;;;;5003188;28;20246;-95
2021/08/06 08:03:46;;;;;;;5.22;4.25;;;20.70;99.90;;;;;;5003246;28;20210;-95
2021/08/06 08:06:13;;;;;;;5.65;3.50;;;20.80;99.90;;;;;;5003318;28;20624;-95
2021/08/06 08:08:39;;;;;;;4.05;3.65;;;20.80;99.90;;;;;;5001414;28;20175;-93
2021/08/06 08:11:05;;;;;;;4.30;3.85;;;20.90;99.90;;;;;;5003714;28;20167;-96
2021/08/06 08:13:31;;;;;;;4.60;3.40;;;21.00;99.90;;;;;;5000558;28;20171;-95
2021/08/06 08:15:58;;;;;;;5.28;3.10;;;21.10;99.90;;;;;;5000433;28;20616;-94
2021/08/06 08:18:26;;;;;;;3.38;2.97;;;21.20;99.90;;;;;;5002926;28;20195;-94
2021/08/06 08:20:52;;;;;;;4.15;2.80;;;21.40;99.90;;;;;;5003878;28;20179;-95
2021/08/06 08:23:20;;;;;;;4.15;2.78;;;21.40;99.90;;;;;;5000842;28;20167;-95
2021/08/06 08:25:52;;;;;;;3.60;3.17;;;21.50;99.90;;;;;;5002033;28;20202;-94
2021/08/06 08:28:23;;;;;;;3.75;3.20;;;21.50;99.90;;;;;;5002925;28;20619;-95
2021/08/06 08:30:49;;;;;;;3.92;3.30;;;21.60;99.90;;;;;;5004799;28;20182;-96
2021/08/06 08:33:17;;;;;;;4.28;3.17;;;21.70;99.90;;;;;;5001086;28;20185;-96
2021/08/06 08:35:45;;;;;;;3.88;3.10;;;21.70;99.90;;;;;;5002443;28;20261;-95
2021/08/06 08:38:11;;;;;;;3.72;3.22;;;21.70;99.90;;;;;;5002904;28;20206;-94
2021/08/06 08:40:41;;;;;;;6.03;3.90;;;21.60;99.90;;;;;;5001119;28;20174;-94
2021/08/06 08:43:08;;;;;;;4.18;3.47;;;21.40;99.90;;;;;;5002571;28;20175;-95
2021/08/06 08:45:39;;;;;;;3.95;3.45;;;21.60;99.90;;;;;;5006438;28;20206;-96
2021/08/06 08:48:10;;;;;;;4.18;3.67;;;21.70;99.90;;;;;;5006600;28;20175;-95
2021/08/06 08:50:38;;;;;;;4.20;3.80;;;21.80;99.90;;;;;;5005013;28;20649;-96
2021/08/06 08:53:05;;;;;;;3.80;3.10;;;21.60;99.90;;;;;;5005823;28;20250;-96
2021/08/06 08:55:32;;;;;;;4.18;3.78;;;21.50;99.90;;;;;;5002283;28;20269;-95
2021/08/06 08:57:58;;;;;;;5.07;3.70;;;21.20;99.90;;;;;;5004965;28;20265;-95
2021/08/06 09:00:24;;;;;;;4.45;3.72;;;21.10;99.90;;;;;;5004372;28;20182;-96
2021/08/06 09:02:50;;;;;;;3.50;3.20;;;21.00;99.90;;;;;;5005848;28;20191;-96
2021/08/06 09:05:20;;;;;;;3.88;3.35;;;20.80;99.90;;;;;;5004125;28;20202;-94
2021/08/06 09:07:46;;;;;;;5.80;3.35;;;20.90;99.90;;;;;;5004055;28;20271;-95
2021/08/06 09:10:20;;;;;;;3.17;2.90;;;21.10;99.90;;;;;;5004934;28;20191;-95
2021/08/06 09:12:48;;;;;;;3.38;2.97;;;21.40;99.90;;;;;;5006777;28;20171;-96
2021/08/06 09:15:17;;;;;;;3.20;2.90;;;21.70;99.90;;;;;;5010338;28;20203;-96
2021/08/06 09:17:44;;;;;;;3.83;3.05;;;22.00;99.90;;;;;;5008924;28;20229;-94
2021/08/06 09:20:10;;;;;;;3.78;2.63;;;22.20;99.90;;;;;;5007546;28;20177;-95
2021/08/06 09:22:40;;;;;;;4.03;3.10;;;22.20;99.90;;;;;;5007020;28;20185;-96
2021/08/06 09:25:16;;;;;;;3.10;2.80;;;22.10;99.90;;;;;;5005272;28;20226;-95
2021/08/06 09:27:45;;;;;;;3.33;2.97;;;22.30;99.90;;;;;;5009250;28;20202;-96
2021/08/06 09:30:24;;;;;;;3.70;3.28;;;22.50;99.90;;;;;;5008363;28;20262;-96
2021/08/06 09:32:53;;;;;;;3.17;2.88;;;22.60;99.90;;;;;;5006992;28;20313;-96
2021/08/06 09:35:21;;;;;;;5.53;3.17;;;22.80;99.90;;;;;;5007598;28;20221;-96
2021/08/06 09:37:48;;;;;;;4.82;2.40;;;23.10;99.90;;;;;;5006311;28;20245;-96
2021/08/06 09:40:20;;;;;;;3.30;2.55;;;23.10;99.90;;;;;;5008592;28;20195;-96
2021/08/06 09:42:52;;;;;;;2.80;2.20;;;23.20;99.90;;;;;;5006429;28;20167;-96
2021/08/06 09:45:23;;;;;;;3.03;2.13;;;23.30;99.90;;;;;;5007576;28;20679;-96
2021/08/06 09:47:59;;;;;;;3.20;1.90;;;23.40;99.90;;;;;;5003754;28;20282;-94
2021/08/06 09:50:31;;;;;;;3.38;2.00;;;23.60;99.90;;;;;;5007124;28;20178;-96
2021/08/06 09:52:57;;;;;;;3.15;1.88;;;23.60;99.90;;;;;;5004412;28;20514;-94
2021/08/06 09:55:26;;;;;;;2.60;2.00;;;23.70;99.90;;;;;;5005597;28;20202;-96
2021/08/06 09:57:54;;;;;;;1.70;1.60;;;23.70;99.90;;;;;;5005238;28;20231;-96
2021/08/06 10:00:24;;;;;;;2.05;1.50;;;23.60;99.90;;;;;;5004229;28;20190;-95
2021/08/06 10:02:51;;;;;;;2.00;1.67;;;23.60;99.90;;;;;;5006042;28;20230;-95
2021/08/06 10:05:22;;;;;;;2.05;1.33;;;23.70;99.90;;;;;;5004066;28;20222;-96
2021/08/06 10:07:56;;;;;;;1.58;1.08;;;23.90;99.70;;;;;;5006093;28;20179;-95
2021/08/06 10:10:32;;;;;;;1.77;1.42;;;23.90;99.00;;;;;;5004077;28;20190;-96
2021/08/06 10:12:59;;;;;;;3.05;1.67;;;23.80;99.30;;;;;;5004538;28;20175;-95
2021/08/06 10:15:26;;;;;;;2.20;1.60;;;23.80;99.90;;;;;;5003781;28;20304;-96
2021/08/06 10:17:54;;;;;;;1.90;1.60;;;23.50;99.90;;;;;;5005971;28;20227;-96
2021/08/06 10:20:24;;;;;;;4.35;1.77;;;23.20;99.30;;;;;;5005962;28;20170;-96
2021/08/06 10:22:51;;;;;;;2.05;1.90;;;23.10;99.90;;;;;;5005803;28;20259;-95
2021/08/06 10:25:19;;;;;;;3.83;1.60;;;22.90;99.90;;;;;;5004634;28;20195;-95
2021/08/06 10:27:47;;;;;;;2.80;1.80;;;22.90;99.90;;;;;;5005492;28;20178;-95
2021/08/06 10:30:28;;;;;;;2.05;1.85;;;22.90;99.90;;;;;;5004743;28;20693;-95
2021/08/06 10:33:13;;;;;;;2.45;1.70;;;23.10;99.90;;;;;;5005713;28;20245;-96
2021/08/06 10:36:05;;;;;;;2.40;2.05;;;23.20;99.90;;;;;;5004197;28;20195;-95
2021/08/06 10:38:43;;;;;;;3.63;1.73;;;23.20;99.90;;;;;;5005279;28;20203;-96
2021/08/06 10:41:20;;;;;;;2.47;2.10;;;23.20;99.90;;;;;;5006434;28;20179;-96
2021/08/06 10:43:59;;;;;;;4.07;2.08;;;23.10;99.90;;;;;;5004647;28;20540;-96
2021/08/06 10:46:26;;;;;;;1.88;1.70;;;22.80;99.90;;;;;;5004792;28;20175;-95
2021/08/06 10:48:55;;;;;;;1.70;1.60;;;22.60;99.90;;;;;;5006667;28;20175;-95
2021/08/06 10:51:28;;;;;;;3.67;2.00;;;22.50;99.90;;;;;;5006175;28;20249;-94
2021/08/06 10:53:58;;;;;;;2.08;1.60;;;22.30;99.90;;;;;;5005116;28;20222;-94
2021/08/06 10:56:29;;;;;;;2.20;2.00;;;22.10;99.90;;;;;;5005047;28;20167;-95
2021/08/06 10:59:02;;;;;;;2.75;1.70;;;21.80;99.90;;;;;;5003711;28;20228;-96
2021/08/06 11:01:32;;;;;;;2.10;1.90;;;21.60;99.90;;;;;;5003621;28;20163;-95
2021/08/06 11:04:13;;;;;;;4.60;2.70;;;21.40;99.90;;;;;;5005139;28;20195;-95
2021/08/06 11:06:47;;;;;;;4.25;2.58;;;21.20;99.90;;;;;;5002088;28;20182;-96
2021/08/06 11:09:27;;;;;;;4.28;2.38;;;21.00;99.90;;;;;;5003275;28;20178;-96
2021/08/06 11:12:04;;;;;;;6.60;2.67;;;21.10;99.90;;;;;;5003587;28;20171;-96
2021/08/06 11:14:30;;;;;;;6.03;2.45;;;21.30;99.90;;;;;;5002833;28;20261;-95
2021/08/06 11:17:05;;;;;;;2.58;2.08;;;21.60;99.90;;;;;;5005632;28;20195;-94
2021/08/06 11:19:40;;;;;;;4.80;1.90;;;22.00;99.90;;;;;;5004859;28;20171;-95
2021/08/06 11:22:28;;;;;;;1.95;1.58;;;22.30;99.90;;;;;;5008240;28;20167;-95
2021/08/06 11:25:06;;;;;;;2.13;1.40;;;22.60;99.90;;;;;;5008016;28;20199;-95
2021/08/06 11:27:42;;;;;;;1.85;1.27;;;22.60;99.90;;;;;;5004580;28;20590;-94
2021/08/06 11:30:18;;;;;;;3.83;1.20;;;22.60;99.90;;;;;;5005100;28;20174;-95
2021/08/06 11:33:05;;;;;;;1.45;1.25;;;22.60;99.90;;;;;;4999813;28;20318;-96
2021/08/06 11:35:32;;;;;;;1.15;0.98;;;22.70;99.90;;;;;;5000154;28;20206;-96
2021/08/06 11:38:18;;;;;;;1.20;1.10;;;22.90;99.90;;;;;;4984312;28;20206;-96
2021/08/06 11:41:02;;;;;;;1.60;1.50;;;23.10;99.90;;;;;;4983440;28;20207;-94
2021/08/06 11:43:37;;;;;;;5.53;1.70;;;23.20;99.90;;;;;;4985141;28;20242;-95
2021/08/06 11:46:12;;;;;;;1.50;1.40;;;23.20;99.90;;;;;;4981321;28;20226;-95
2021/08/06 11:49:00;;;;;;;1.50;1.40;;;23.00;99.90;;;;;;4983471;28;20179;-95
2021/08/06 11:51:26;;;;;;;2.10;1.90;;;23.00;99.90;;;;;;4983842;28;20184;-95
2021/08/06 11:53:52;;;;;;;1.90;1.80;;;23.00;99.90;;;;;;4988156;28;20196;-95
2021/08/06 11:56:21;;;;;;;2.17;1.80;;;23.00;99.90;;;;;;4982875;28;20239;-96
2021/08/06 11:58:47;;;;;;;1.70;1.55;;;23.10;99.90;;;;;;4981376;28;20171;-96
2021/08/06 12:01:22;;;;;;;1.95;1.70;;;23.30;99.90;;;;;;4983017;28;20168;-95
2021/08/06 12:03:54;;;;;;;1.60;1.42;;;23.50;99.90;;;;;;4983539;28;20176;-95
2021/08/06 12:06:22;;;;;;;2.13;1.80;;;23.70;99.90;;;;;;4980459;28;20172;-94
2021/08/06 12:08:54;;;;;;;2.45;1.60;;;23.90;99.90;;;;;;4980434;28;20173;-93
2021/08/06 12:11:23;;;;;;;2.88;1.50;;;24.00;99.90;;;;;;4978703;28;20231;-94
2021/08/06 12:13:54;;;;;;;2.30;1.60;;;24.00;99.90;;;;;;4978304;28;20358;-95
2021/08/06 12:16:35;;;;;;;2.28;1.60;;;24.10;99.90;;;;;;4978231;28;20519;-95
2021/08/06 12:19:02;;;;;;;1.88;1.45;;;24.10;99.90;;;;;;4978587;28;20168;-96
2021/08/06 12:21:32;;;;;;;1.85;1.48;;;24.10;99.90;;;;;;4978515;28;20210;-96
2021/08/06 12:24:05;;;;;;;2.35;1.40;;;24.10;99.90;;;;;;4978081;28;20195;-96
2021/08/06 12:26:48;;;;;;;3.03;1.67;;;24.00;99.90;;;;;;4977626;28;20171;-95
2021/08/06 12:29:19;;;;;;;3.03;1.70;;;23.70;99.90;;;;;;4978532;28;20310;-95
2021/08/06 12:31:52;;;;;;;2.33;1.60;;;23.50;99.90;;;;;;4978577;28;20526;-95
2021/08/06 12:34:28;;;;;;;1.50;1.40;;;23.30;99.90;;;;;;4978358;28;20203;-95
2021/08/06 12:37:17;;;;;;;3.08;1.60;;;23.10;99.90;;;;;;4979382;28;20195;-95
2021/08/06 12:40:01;;;;;;;4.28;1.45;;;22.90;99.90;;;;;;4979061;28;20194;-95
2021/08/06 12:42:36;;;;;;;1.50;1.40;;;22.70;99.90;;;;;;4979599;28;20552;-96
2021/08/06 12:45:10;;;;;;;1.60;1.30;;;22.70;99.90;;;;;;4978528;28;20202;-95
2021/08/06 12:48:03;;;;;;;2.40;1.40;;;22.80;99.90;;;;;;4979252;28;20171;-95
2021/08/06 12:50:32;;;;;;;1.95;1.23;;;22.90;99.90;;;;;;4983785;28;20222;-94
2021/08/06 12:53:18;;;;;;;2.10;1.15;;;23.20;99.90;;;;;;4983809;28;20634;-96
2021/08/06 12:55:47;;;;;;;2.33;1.30;;;23.50;99.90;;;;;;4983974;28;20723;-94
2021/08/06 12:58:22;;;;;;;1.52;0.90;;;23.50;99.90;;;;;;4983995;28;20199;-96
2021/08/06 13:01:01;;;;;;;1.08;0.95;;;23.40;99.90;;;;;;4985018;28;20172;-96
2021/08/06 13:03:46;;;;;;;1.65;1.00;;;23.20;99.90;;;;;;4983668;28;20168;-96